createdAt,value
2023-03-18T00:01:16.313Z,34.70
2023-03-18T00:03:43.502Z,34.80
2023-03-18T00:06:13.799Z,34.80
2023-03-18T00:08:42.676Z,34.80
2023-03-18T00:11:11.133Z,34.70
2023-03-18T00:13:37.987Z,34.70
2023-03-18T00:16:06.685Z,34.60
2023-03-18T00:18:34.393Z,34.60
2023-03-18T00:21:01.965Z,34.60
2023-03-18T00:23:28.979Z,34.50
2023-03-18T00:25:57.577Z,34.60
2023-03-18T00:28:24.865Z,34.60
2023-03-18T00:30:51.887Z,34.50
2023-03-18T00:33:19.490Z,34.50
2023-03-18T00:35:47.525Z,34.50
2023-03-18T00:38:21.168Z,34.40
2023-03-18T00:41:04.194Z,34.30
2023-03-18T00:43:33.872Z,34.30
2023-03-18T00:46:00.757Z,34.20
2023-03-18T00:48:28.050Z,34.20
2023-03-18T00:50:54.823Z,34.20
2023-03-18T00:53:23.619Z,34.10
2023-03-18T00:55:50.364Z,34.10
2023-03-18T00:58:17.103Z,34.00
2023-03-18T01:00:43.974Z,34.00
2023-03-18T01:03:10.917Z,33.90
2023-03-18T01:05:38.245Z,33.80
2023-03-18T01:08:05.447Z,33.80
2023-03-18T01:10:33.013Z,33.90
2023-03-18T01:13:00.827Z,33.80
2023-03-18T01:15:28.220Z,33.80
2023-03-18T01:17:56.909Z,33.70
2023-03-18T01:20:24.833Z,33.70
2023-03-18T01:22:51.847Z,33.60
2023-03-18T01:25:19.071Z,33.60
2023-03-18T01:27:45.980Z,33.60
2023-03-18T01:30:13.466Z,33.70
2023-03-18T01:32:41.230Z,33.70
2023-03-18T01:35:08.581Z,33.70
2023-03-18T01:37:35.519Z,33.70
2023-03-18T01:40:02.733Z,33.70
2023-03-18T01:42:30.206Z,33.70
2023-03-18T01:45:21.742Z,33.70
2023-03-18T01:47:49.781Z,33.60
2023-03-18T01:50:25.485Z,33.50
2023-03-18T01:52:56.693Z,33.40
2023-03-18T01:55:29.801Z,33.40
2023-03-18T01:57:57.161Z,33.30
2023-03-18T02:00:24.144Z,33.30
2023-03-18T02:02:55.556Z,33.30
2023-03-18T02:07:53.081Z,33.20
2023-03-18T02:10:23.929Z,33.10
2023-03-18T02:13:03.057Z,33.20
2023-03-18T02:15:33.067Z,33.20
2023-03-18T02:18:16.935Z,33.10
2023-03-18T02:20:59.413Z,33.00
2023-03-18T02:23:55.421Z,33.00
2023-03-18T02:27:00.179Z,33.00
2023-03-18T02:29:31.168Z,33.00
2023-03-18T02:32:03.048Z,33.00
2023-03-18T02:34:32.057Z,32.90
2023-03-18T02:36:59.446Z,33.00
2023-03-18T02:39:26.475Z,32.90
2023-03-18T02:41:53.457Z,32.90
2023-03-18T02:44:21.228Z,32.90
2023-03-18T02:47:00.888Z,32.90
2023-03-18T02:49:28.767Z,32.90
2023-03-18T02:51:56.164Z,33.00
2023-03-18T02:54:26.526Z,32.90
2023-03-18T02:56:53.649Z,32.90
2023-03-18T02:59:21.812Z,32.80
2023-03-18T03:01:51.545Z,32.70
2023-03-18T03:04:20.688Z,32.70
2023-03-18T03:06:47.825Z,32.70
2023-03-18T03:09:16.389Z,32.70
2023-03-18T03:11:45.904Z,32.60
2023-03-18T03:14:14.151Z,32.60
2023-03-18T03:16:41.084Z,32.60
2023-03-18T03:19:08.320Z,32.60
2023-03-18T03:21:36.674Z,32.50
2023-03-18T03:24:05.480Z,32.50
2023-03-18T03:26:34.340Z,32.40
2023-03-18T03:29:01.678Z,32.50
2023-03-18T03:31:29.087Z,32.40
2023-03-18T03:33:56.280Z,32.40
2023-03-18T03:36:23.157Z,32.40
2023-03-18T03:38:50.489Z,32.40
2023-03-18T03:41:17.454Z,32.50
2023-03-18T03:43:44.897Z,32.40
2023-03-18T03:46:12.527Z,32.40
2023-03-18T03:48:40.827Z,32.40
2023-03-18T03:51:07.749Z,32.40
2023-03-18T03:53:36.103Z,32.40
2023-03-18T03:56:04.119Z,32.40
2023-03-18T03:58:31.279Z,32.30
2023-03-18T04:00:58.346Z,32.40
2023-03-18T04:03:25.610Z,32.40
2023-03-18T04:05:52.720Z,32.40
2023-03-18T04:08:19.840Z,32.40
2023-03-18T04:10:46.803Z,32.30
2023-03-18T04:13:13.703Z,32.20
2023-03-18T04:15:40.795Z,32.10
2023-03-18T04:18:08.010Z,32.00
2023-03-18T04:20:38.769Z,31.90
2023-03-18T04:23:05.828Z,31.90
2023-03-18T04:25:33.210Z,31.90
2023-03-18T04:28:00.082Z,31.80
2023-03-18T04:30:30.787Z,31.70
2023-03-18T04:32:59.622Z,31.50
2023-03-18T04:35:26.962Z,31.40
2023-03-18T04:37:54.643Z,31.30
2023-03-18T04:40:21.976Z,31.20
2023-03-18T04:42:48.863Z,31.20
2023-03-18T04:45:16.684Z,31.10
2023-03-18T04:47:44.360Z,31.80
2023-03-18T04:50:12.466Z,31.00
2023-03-18T04:52:45.020Z,30.90
2023-03-18T04:55:14.148Z,31.00
2023-03-18T04:57:42.599Z,30.90
2023-03-18T05:00:12.229Z,30.90
2023-03-18T05:02:40.370Z,30.80
2023-03-18T05:05:08.061Z,30.80
2023-03-18T05:07:35.411Z,30.70
2023-03-18T05:10:03.873Z,30.60
2023-03-18T05:12:31.445Z,30.60
2023-03-18T05:14:58.250Z,30.60
2023-03-18T05:17:25.526Z,30.60
2023-03-18T05:19:52.314Z,30.60
2023-03-18T05:22:20.961Z,30.50
2023-03-18T05:24:48.549Z,30.40
2023-03-18T05:27:18.342Z,30.50
2023-03-18T05:29:45.986Z,30.40
2023-03-18T05:32:14.629Z,30.40
2023-03-18T05:34:42.294Z,30.40
2023-03-18T05:37:11.990Z,30.40
2023-03-18T05:39:39.390Z,30.40
2023-03-18T05:42:07.576Z,30.50
2023-03-18T05:44:34.896Z,30.60
2023-03-18T05:47:02.683Z,30.60
2023-03-18T05:49:29.695Z,30.70
2023-03-18T05:51:56.988Z,30.70
2023-03-18T05:54:24.153Z,30.70
2023-03-18T05:56:52.660Z,30.80
2023-03-18T05:59:20.839Z,30.80
2023-03-18T06:01:49.035Z,30.80
2023-03-18T06:04:17.271Z,30.90
2023-03-18T06:06:44.067Z,31.00
2023-03-18T06:09:13.145Z,30.90
2023-03-18T06:11:41.197Z,30.90
2023-03-18T06:14:08.487Z,30.90
2023-03-18T06:16:36.069Z,30.90
2023-03-18T06:19:04.403Z,30.80
2023-03-18T06:21:33.105Z,30.90
2023-03-18T06:24:00.887Z,31.00
2023-03-18T06:26:27.941Z,31.00
2023-03-18T06:28:54.843Z,31.50
2023-03-18T06:31:22.455Z,31.30
2023-03-18T06:33:49.453Z,31.50
2023-03-18T06:36:16.764Z,31.70
2023-03-18T06:38:44.987Z,31.90
2023-03-18T06:41:12.232Z,32.10
2023-03-18T06:43:39.147Z,32.30
2023-03-18T06:46:06.051Z,32.40
2023-03-18T06:48:32.922Z,32.50
2023-03-18T06:51:00.245Z,32.60
2023-03-18T06:53:27.963Z,32.70
2023-03-18T06:55:56.610Z,32.70
2023-03-18T06:58:24.697Z,32.80
2023-03-18T07:00:51.843Z,32.90
2023-03-18T07:03:18.699Z,32.90
2023-03-18T07:05:45.461Z,32.80
2023-03-18T07:08:12.265Z,32.90
2023-03-18T07:10:39.485Z,32.80
2023-03-18T07:13:06.286Z,32.80
2023-03-18T07:15:34.110Z,33.00
2023-03-18T07:18:02.900Z,33.10
2023-03-18T07:20:29.849Z,33.40
2023-03-18T07:22:56.799Z,33.60
2023-03-18T07:25:23.544Z,33.70
2023-03-18T07:27:50.388Z,33.70
2023-03-18T07:30:17.984Z,33.80
2023-03-18T07:32:46.009Z,34.00
2023-03-18T07:35:16.047Z,34.10
2023-03-18T07:37:42.768Z,34.10
2023-03-18T07:40:11.682Z,34.10
2023-03-18T07:42:38.628Z,34.10
2023-03-18T07:45:07.712Z,34.10
2023-03-18T07:47:34.589Z,34.10
2023-03-18T07:50:01.421Z,34.20
2023-03-18T07:52:29.373Z,34.20
2023-03-18T07:54:56.534Z,34.40
2023-03-18T07:57:24.035Z,34.50
2023-03-18T07:59:51.884Z,34.80
2023-03-18T08:02:18.843Z,34.80
2023-03-18T08:04:46.678Z,35.00
2023-03-18T08:07:13.745Z,35.20
2023-03-18T08:09:40.534Z,35.30
2023-03-18T08:12:08.407Z,35.50
2023-03-18T08:14:35.422Z,35.70
2023-03-18T08:17:03.627Z,35.70
2023-03-18T08:19:30.481Z,35.80
2023-03-18T08:21:57.520Z,35.80
2023-03-18T08:24:24.635Z,36.00
2023-03-18T08:26:51.520Z,36.10
2023-03-18T08:29:18.327Z,36.30
2023-03-18T08:31:45.526Z,36.30
2023-03-18T08:34:12.343Z,36.20
2023-03-18T08:36:41.508Z,36.20
2023-03-18T08:39:09.882Z,36.30
2023-03-18T08:41:37.048Z,36.30
2023-03-18T08:44:06.441Z,36.40
2023-03-18T08:46:33.313Z,36.40
2023-03-18T08:49:00.545Z,36.40
2023-03-18T08:51:27.356Z,36.40
2023-03-18T08:53:54.349Z,36.20
2023-03-18T08:56:21.345Z,36.10
2023-03-18T08:58:48.427Z,35.90
2023-03-18T09:01:16.654Z,35.80
2023-03-18T09:03:44.741Z,35.60
2023-03-18T09:06:11.676Z,35.40
2023-03-18T09:08:39.573Z,35.20
2023-03-18T09:11:07.248Z,35.00
2023-03-18T09:13:34.324Z,34.80
2023-03-18T09:16:01.095Z,34.60
2023-03-18T09:18:29.328Z,34.70
2023-03-18T09:20:56.550Z,34.50
2023-03-18T09:23:23.412Z,34.50
2023-03-18T09:25:50.208Z,34.40
2023-03-18T09:28:17.755Z,34.40
2023-03-18T09:30:44.616Z,34.40
2023-03-18T09:33:11.690Z,34.40
2023-03-18T09:35:39.132Z,34.60
2023-03-18T09:38:07.243Z,34.80
2023-03-18T09:40:45.613Z,34.90
2023-03-18T09:43:44.525Z,35.00
2023-03-18T09:46:21.935Z,35.10
2023-03-18T09:49:14.769Z,35.00
2023-03-18T09:51:57.445Z,35.00
2023-03-18T09:54:36.353Z,35.00
2023-03-18T09:57:04.400Z,35.00
2023-03-18T09:59:39.297Z,35.10
2023-03-18T10:02:32.654Z,35.00
2023-03-18T10:05:05.537Z,35.00
2023-03-18T10:07:38.213Z,35.00
2023-03-18T10:10:16.061Z,34.80
2023-03-18T10:12:47.224Z,35.50
2023-03-18T10:15:49.145Z,34.60
2023-03-18T10:18:27.900Z,34.70
2023-03-18T10:21:16.569Z,34.70
2023-03-18T10:23:49.805Z,34.70
2023-03-18T10:26:41.062Z,34.70
2023-03-18T10:29:46.481Z,34.70
2023-03-18T10:32:49.004Z,34.70
2023-03-18T10:35:48.414Z,34.80
2023-03-18T10:38:50.635Z,34.80
2023-03-18T10:41:29.266Z,34.80
2023-03-18T10:43:57.362Z,34.80
2023-03-18T10:46:26.990Z,34.70
2023-03-18T10:49:14.999Z,34.70
2023-03-18T10:52:08.427Z,34.80
2023-03-18T10:54:44.100Z,34.60
2023-03-18T10:57:19.561Z,34.50
2023-03-18T10:59:47.617Z,34.40
2023-03-18T11:02:34.456Z,34.30
2023-03-18T11:05:19.474Z,34.20
2023-03-18T11:08:03.619Z,34.30
2023-03-18T11:10:35.606Z,34.20
2023-03-18T11:13:03.444Z,34.30
2023-03-18T11:15:37.160Z,34.10
2023-03-18T11:18:05.251Z,34.10
2023-03-18T11:20:45.561Z,34.10
2023-03-18T11:23:19.189Z,34.10
2023-03-18T11:25:47.222Z,34.00
2023-03-18T11:28:28.039Z,33.90
2023-03-18T11:31:05.153Z,33.90
2023-03-18T11:33:37.271Z,33.80
2023-03-18T11:36:09.623Z,33.70
2023-03-18T11:38:37.309Z,33.80
2023-03-18T11:41:22.217Z,33.80
2023-03-18T11:44:01.014Z,33.90
2023-03-18T11:46:43.223Z,34.00
2023-03-18T11:49:15.025Z,34.20
2023-03-18T11:51:59.469Z,34.30
2023-03-18T11:54:55.817Z,35.20
2023-03-18T11:57:27.189Z,34.70
2023-03-18T12:00:06.204Z,34.90
2023-03-18T12:02:49.470Z,34.90
2023-03-18T12:05:51.923Z,35.00
2023-03-18T12:08:26.657Z,35.10
2023-03-18T12:11:07.642Z,35.30
2023-03-18T12:13:49.039Z,35.40
2023-03-18T12:16:41.346Z,35.50
2023-03-18T12:19:30.245Z,35.60
2023-03-18T12:22:16.085Z,35.50
2023-03-18T12:25:01.349Z,35.50
2023-03-18T12:27:52.451Z,35.50
2023-03-18T12:30:44.112Z,35.40
2023-03-18T12:33:43.103Z,35.50
2023-03-18T12:36:28.908Z,35.50
2023-03-18T12:39:15.830Z,35.40
2023-03-18T12:42:08.084Z,35.40
2023-03-18T12:45:13.026Z,35.50
2023-03-18T12:47:46.153Z,35.50
2023-03-18T12:50:25.319Z,35.40
2023-03-18T12:53:16.492Z,35.20
2023-03-18T12:55:54.649Z,35.10
2023-03-18T12:58:37.745Z,35.20
2023-03-18T13:01:09.757Z,35.30
2023-03-18T13:03:40.143Z,35.20
2023-03-18T13:06:18.704Z,35.20
2023-03-18T13:09:21.827Z,35.20
2023-03-18T13:12:14.482Z,35.20
2023-03-18T13:15:02.971Z,35.40
2023-03-18T13:17:36.178Z,35.70
2023-03-18T13:20:25.754Z,35.60
2023-03-18T13:23:24.630Z,35.70
2023-03-18T13:26:11.396Z,35.80
2023-03-18T13:28:44.933Z,35.80
2023-03-18T13:31:33.274Z,35.80
2023-03-18T13:34:26.606Z,35.90
2023-03-18T13:37:22.766Z,35.80
2023-03-18T13:40:14.494Z,35.80
2023-03-18T13:42:42.232Z,35.90
2023-03-18T13:45:24.299Z,36.00
2023-03-18T13:48:00.590Z,36.10
2023-03-18T13:50:32.731Z,36.10
2023-03-18T13:53:01.824Z,36.20
2023-03-18T13:55:47.892Z,36.10
2023-03-18T13:58:21.229Z,36.20
2023-03-18T14:01:00.368Z,36.20
2023-03-18T14:03:42.454Z,36.10
2023-03-18T14:06:09.295Z,36.00
2023-03-18T14:08:38.821Z,35.80
2023-03-18T14:11:28.666Z,35.80
2023-03-18T14:14:01.763Z,35.80
2023-03-18T14:16:36.115Z,35.80
2023-03-18T14:19:17.408Z,35.80
2023-03-18T14:21:49.106Z,35.80
2023-03-18T14:24:18.602Z,35.80
2023-03-18T14:27:03.568Z,35.90
2023-03-18T14:29:47.403Z,36.00
2023-03-18T14:32:32.757Z,35.90
2023-03-18T14:35:17.999Z,35.80
2023-03-18T14:38:03.708Z,35.70
2023-03-18T14:40:40.853Z,35.70
2023-03-18T14:43:31.014Z,35.90
2023-03-18T14:46:01.768Z,35.80
2023-03-18T14:48:33.638Z,35.70
2023-03-18T14:51:11.788Z,35.70
2023-03-18T14:53:49.084Z,35.50
2023-03-18T14:56:23.967Z,35.50
2023-03-18T14:58:55.230Z,35.30
2023-03-18T15:01:44.752Z,35.30
2023-03-18T15:04:22.588Z,35.30
2023-03-18T15:06:50.871Z,35.20
2023-03-18T15:09:22.092Z,35.20
2023-03-18T15:11:48.945Z,35.10
2023-03-18T15:14:20.051Z,35.10
2023-03-18T15:17:00.931Z,35.10
2023-03-18T15:19:28.744Z,35.00
2023-03-18T15:21:58.996Z,35.00
2023-03-18T15:24:26.903Z,35.00
2023-03-18T15:26:57.386Z,35.00
2023-03-18T15:29:28.261Z,35.10
2023-03-18T15:32:15.844Z,35.00
2023-03-18T15:34:44.799Z,35.00
2023-03-18T15:37:40.524Z,35.00
2023-03-18T15:40:30.461Z,35.00
2023-03-18T15:43:16.777Z,34.90
2023-03-18T15:46:07.777Z,34.90
2023-03-18T15:48:43.949Z,35.60
2023-03-18T15:51:28.951Z,35.10
2023-03-18T15:54:05.795Z,35.10
2023-03-18T15:56:36.069Z,35.10
2023-03-18T15:59:06.723Z,35.30
2023-03-18T16:01:35.272Z,35.50
2023-03-18T16:04:06.243Z,35.60
2023-03-18T16:06:34.456Z,35.70
2023-03-18T16:09:02.365Z,35.70
2023-03-18T16:11:29.975Z,35.70
2023-03-18T16:13:56.999Z,35.80
2023-03-18T16:16:29.157Z,35.80
2023-03-18T16:18:57.855Z,35.90
2023-03-18T16:21:24.615Z,36.00
2023-03-18T16:23:51.563Z,36.00
2023-03-18T16:26:18.946Z,36.10
2023-03-18T16:28:47.909Z,36.30
2023-03-18T16:31:15.352Z,36.40
2023-03-18T16:33:42.567Z,36.60
2023-03-18T16:36:21.110Z,36.70
2023-03-18T16:38:47.905Z,36.90
2023-03-18T16:41:14.781Z,37.70
2023-03-18T16:43:43.154Z,37.10
2023-03-18T16:46:13.215Z,37.10
2023-03-18T16:48:40.343Z,37.20
2023-03-18T16:51:07.266Z,37.30
2023-03-18T16:53:34.341Z,37.30
2023-03-18T16:56:16.282Z,37.50
2023-03-18T16:58:44.481Z,37.50
2023-03-18T17:01:16.441Z,37.60
2023-03-18T17:03:44.164Z,37.80
2023-03-18T17:06:13.232Z,37.90
2023-03-18T17:08:40.129Z,38.00
2023-03-18T17:11:07.489Z,38.10
2023-03-18T17:13:37.870Z,38.10
2023-03-18T17:16:05.065Z,38.20
2023-03-18T17:18:32.008Z,38.30
2023-03-18T17:20:58.857Z,38.20
2023-03-18T17:23:29.715Z,38.40
2023-03-18T17:26:02.902Z,38.50
2023-03-18T17:28:37.923Z,38.70
2023-03-18T17:31:05.593Z,39.00
2023-03-18T17:33:38.372Z,39.20
2023-03-18T17:36:06.818Z,39.30
2023-03-18T17:38:37.165Z,39.60
2023-03-18T17:41:13.288Z,39.60
2023-03-18T17:43:41.954Z,39.70
2023-03-18T17:46:08.811Z,39.80
2023-03-18T17:48:37.772Z,40.60
2023-03-18T17:51:14.575Z,40.10
2023-03-18T17:53:56.432Z,40.10
2023-03-18T17:56:23.257Z,40.30
2023-03-18T17:58:51.678Z,40.40
2023-03-18T18:01:27.187Z,40.40
2023-03-18T18:03:55.935Z,40.40
2023-03-18T18:06:30.168Z,40.50
2023-03-18T18:09:01.039Z,40.50
2023-03-18T18:11:39.717Z,40.60
2023-03-18T18:14:18.705Z,40.80
2023-03-18T18:16:47.097Z,41.00
2023-03-18T18:19:14.972Z,41.00
2023-03-18T18:21:43.809Z,41.00
2023-03-18T18:24:15.498Z,41.10
2023-03-18T18:26:42.366Z,41.20
2023-03-18T18:29:15.237Z,41.20
2023-03-18T18:31:42.167Z,41.30
2023-03-18T18:34:09.328Z,41.30
2023-03-18T18:36:36.814Z,41.30
2023-03-18T18:39:04.973Z,41.30
2023-03-18T18:41:32.976Z,41.30
2023-03-18T18:44:00.120Z,41.30
2023-03-18T18:46:29.310Z,41.20
2023-03-18T18:48:56.570Z,41.10
2023-03-18T18:51:24.574Z,41.10
2023-03-18T18:53:53.442Z,41.00
2023-03-18T18:56:34.047Z,41.80
2023-03-18T18:59:05.226Z,41.00
2023-03-18T19:01:32.070Z,41.00
2023-03-18T19:03:58.865Z,40.90
2023-03-18T19:06:30.926Z,40.90
2023-03-18T19:09:00.152Z,41.00
2023-03-18T19:11:28.352Z,41.10
2023-03-18T19:14:12.761Z,41.10
2023-03-18T19:16:39.570Z,41.00
2023-03-18T19:19:09.503Z,40.90
2023-03-18T19:21:37.290Z,40.80
2023-03-18T19:24:20.532Z,40.70
2023-03-18T19:26:47.296Z,40.60
2023-03-18T19:29:14.126Z,40.30
2023-03-18T19:31:41.984Z,40.10
2023-03-18T19:34:16.571Z,39.90
2023-03-18T19:36:48.292Z,39.70
2023-03-18T19:39:18.263Z,39.60
2023-03-18T19:41:47.177Z,39.50
2023-03-18T19:44:20.414Z,39.40
2023-03-18T19:46:49.053Z,39.30
2023-03-18T19:49:36.056Z,39.20
2023-03-18T19:52:30.899Z,39.10
2023-03-18T19:54:58.680Z,39.00
2023-03-18T19:57:28.685Z,39.00
2023-03-18T19:59:57.948Z,38.80
2023-03-18T20:02:29.570Z,38.80
2023-03-18T20:05:02.405Z,38.80
2023-03-18T20:07:34.896Z,38.90
2023-03-18T20:10:01.815Z,38.90
2023-03-18T20:12:34.904Z,39.00
2023-03-18T20:15:02.259Z,39.70
2023-03-18T20:17:32.367Z,39.00
2023-03-18T20:19:59.422Z,39.20
2023-03-18T20:22:38.595Z,39.20
2023-03-18T20:25:08.339Z,39.20
2023-03-18T20:27:35.153Z,39.10
2023-03-18T20:30:02.026Z,39.00
2023-03-18T20:32:29.342Z,39.00
2023-03-18T20:34:56.516Z,39.00
2023-03-18T20:37:36.022Z,39.10
2023-03-18T20:40:05.393Z,39.10
2023-03-18T20:42:32.529Z,39.20
2023-03-18T20:44:59.342Z,39.20
2023-03-18T20:47:26.224Z,39.20
2023-03-18T20:49:54.640Z,39.10
2023-03-18T20:52:29.418Z,39.00
2023-03-18T20:54:57.048Z,39.00
2023-03-18T20:57:24.902Z,38.90
2023-03-18T20:59:52.324Z,38.80
2023-03-18T21:02:27.227Z,38.80
2023-03-18T21:04:55.681Z,38.60
2023-03-18T21:07:24.232Z,38.60
2023-03-18T21:09:52.006Z,38.60
2023-03-18T21:12:20.564Z,38.60
2023-03-18T21:14:48.135Z,38.60
2023-03-18T21:17:23.479Z,38.70
2023-03-18T21:19:51.468Z,38.60
2023-03-18T21:22:24.892Z,38.60
2023-03-18T21:24:52.420Z,38.50
2023-03-18T21:27:21.640Z,38.50
2023-03-18T21:29:51.172Z,38.60
2023-03-18T21:32:28.116Z,38.90
2023-03-18T21:34:55.737Z,38.70
2023-03-18T21:37:26.320Z,38.80
2023-03-18T21:39:54.338Z,38.80
2023-03-18T21:42:24.299Z,38.90
2023-03-18T21:44:51.981Z,38.90
2023-03-18T21:47:21.202Z,39.00
2023-03-18T21:49:48.907Z,39.10
2023-03-18T21:52:39.750Z,39.00
2023-03-18T21:55:07.319Z,39.00
2023-03-18T21:57:34.161Z,38.90
2023-03-18T22:00:01.250Z,38.90
2023-03-18T22:02:34.699Z,38.80
2023-03-18T22:05:11.680Z,38.80
2023-03-18T22:07:38.594Z,38.70
2023-03-18T22:10:07.101Z,38.70
2023-03-18T22:12:34.534Z,38.60
2023-03-18T22:15:01.590Z,38.60
2023-03-18T22:17:31.115Z,38.60
2023-03-18T22:20:00.544Z,38.60
2023-03-18T22:22:36.791Z,38.50
2023-03-18T22:25:03.942Z,38.50
2023-03-18T22:27:32.077Z,38.40
2023-03-18T22:30:00.673Z,38.40
2023-03-18T22:32:44.334Z,38.40
2023-03-18T22:35:23.228Z,38.50
2023-03-18T22:37:50.918Z,38.50
2023-03-18T22:40:26.737Z,38.50
2023-03-18T22:42:56.312Z,38.50
2023-03-18T22:45:28.546Z,38.50
2023-03-18T22:47:58.296Z,38.50
2023-03-18T22:50:27.643Z,38.50
2023-03-18T22:53:08.620Z,38.50
2023-03-18T22:55:38.628Z,38.50
2023-03-18T22:58:06.747Z,38.50
2023-03-18T23:00:39.150Z,38.50
2023-03-18T23:03:14.707Z,38.40
2023-03-18T23:05:41.596Z,38.40
2023-03-18T23:08:08.436Z,38.30
2023-03-18T23:10:36.343Z,38.30
2023-03-18T23:13:13.739Z,38.30
2023-03-18T23:15:40.618Z,38.10
2023-03-18T23:18:15.708Z,38.10
2023-03-18T23:20:48.042Z,38.00
2023-03-18T23:23:16.126Z,38.10
2023-03-18T23:25:44.654Z,38.10
2023-03-18T23:28:12.139Z,38.10
2023-03-18T23:30:41.664Z,38.10
2023-03-18T23:33:09.480Z,38.20
2023-03-18T23:35:37.485Z,38.20
2023-03-18T23:38:05.733Z,38.30
2023-03-18T23:40:32.826Z,38.40
2023-03-18T23:42:59.626Z,38.60
2023-03-18T23:45:27.862Z,38.70
2023-03-18T23:47:55.867Z,38.80
2023-03-18T23:50:23.320Z,38.90
2023-03-18T23:52:50.703Z,38.80
2023-03-18T23:55:33.718Z,38.80
2023-03-18T23:58:01.483Z,38.70
